sensor_id;sensor_type;location;lat;lon;timestamp;P1;durP1;ratioP1;P2;durP2;ratioP2
64887;SDS011;51386;53.082;8.816;2023-12-20T00:00:12;8.50;;;2.90;;
64887;SDS011;51386;53.082;8.816;2023-12-20T00:02:41;10.73;;;2.43;;
64887;SDS011;51386;53.082;8.816;2023-12-20T00:05:14;9.03;;;2.40;;
64887;SDS011;51386;53.082;8.816;2023-12-20T00:07:42;7.43;;;2.40;;
64887;SDS011;51386;53.082;8.816;2023-12-20T00:10:11;10.10;;;2.17;;
64887;SDS011;51386;53.082;8.816;2023-12-20T00:12:40;13.80;;;2.20;;
64887;SDS011;51386;53.082;8.816;2023-12-20T00:15:09;7.13;;;1.93;;
64887;SDS011;51386;53.082;8.816;2023-12-20T00:17:37;12.67;;;2.00;;
64887;SDS011;51386;53.082;8.816;2023-12-20T00:20:06;10.93;;;2.20;;
64887;SDS011;51386;53.082;8.816;2023-12-20T00:22:35;10.90;;;2.67;;
64887;SDS011;51386;53.082;8.816;2023-12-20T00:25:04;10.23;;;2.63;;
64887;SDS011;51386;53.082;8.816;2023-12-20T00:27:33;10.23;;;2.70;;
64887;SDS011;51386;53.082;8.816;2023-12-20T00:30:01;7.47;;;2.13;;
64887;SDS011;51386;53.082;8.816;2023-12-20T00:32:30;8.53;;;2.53;;
64887;SDS011;51386;53.082;8.816;2023-12-20T00:34:58;14.33;;;2.33;;
64887;SDS011;51386;53.082;8.816;2023-12-20T00:37:26;11.13;;;2.30;;
64887;SDS011;51386;53.082;8.816;2023-12-20T00:39:55;10.23;;;2.37;;
64887;SDS011;51386;53.082;8.816;2023-12-20T00:42:23;11.57;;;2.43;;
64887;SDS011;51386;53.082;8.816;2023-12-20T00:44:52;9.33;;;3.13;;
64887;SDS011;51386;53.082;8.816;2023-12-20T00:47:20;8.27;;;1.90;;
64887;SDS011;51386;53.082;8.816;2023-12-20T00:49:49;10.47;;;2.50;;
64887;SDS011;51386;53.082;8.816;2023-12-20T00:52:18;8.20;;;2.10;;
64887;SDS011;51386;53.082;8.816;2023-12-20T00:54:46;12.00;;;2.57;;
64887;SDS011;51386;53.082;8.816;2023-12-20T00:57:15;4.23;;;2.00;;
64887;SDS011;51386;53.082;8.816;2023-12-20T00:59:43;6.97;;;2.10;;
64887;SDS011;51386;53.082;8.816;2023-12-20T01:02:11;12.87;;;2.67;;
64887;SDS011;51386;53.082;8.816;2023-12-20T01:04:40;12.77;;;2.43;;
64887;SDS011;51386;53.082;8.816;2023-12-20T01:07:08;9.87;;;2.50;;
64887;SDS011;51386;53.082;8.816;2023-12-20T01:09:37;11.53;;;2.50;;
64887;SDS011;51386;53.082;8.816;2023-12-20T01:12:05;8.67;;;2.33;;
64887;SDS011;51386;53.082;8.816;2023-12-20T01:14:34;7.80;;;2.13;;
64887;SDS011;51386;53.082;8.816;2023-12-20T01:17:02;9.87;;;2.50;;
64887;SDS011;51386;53.082;8.816;2023-12-20T01:19:31;11.70;;;2.90;;
64887;SDS011;51386;53.082;8.816;2023-12-20T01:21:59;10.33;;;2.47;;
64887;SDS011;51386;53.082;8.816;2023-12-20T01:24:28;6.83;;;2.00;;
64887;SDS011;51386;53.082;8.816;2023-12-20T01:26:56;14.00;;;2.83;;
64887;SDS011;51386;53.082;8.816;2023-12-20T01:29:24;8.90;;;2.60;;
64887;SDS011;51386;53.082;8.816;2023-12-20T01:31:53;7.83;;;2.03;;
64887;SDS011;51386;53.082;8.816;2023-12-20T01:34:21;11.13;;;2.37;;
64887;SDS011;51386;53.082;8.816;2023-12-20T01:36:50;12.20;;;2.47;;
64887;SDS011;51386;53.082;8.816;2023-12-20T01:39:18;15.97;;;3.03;;
64887;SDS011;51386;53.082;8.816;2023-12-20T01:41:55;13.63;;;2.47;;
64887;SDS011;51386;53.082;8.816;2023-12-20T01:44:23;9.97;;;2.57;;
64887;SDS011;51386;53.082;8.816;2023-12-20T01:46:52;9.07;;;2.23;;
64887;SDS011;51386;53.082;8.816;2023-12-20T01:49:20;12.17;;;2.77;;
64887;SDS011;51386;53.082;8.816;2023-12-20T01:51:50;9.47;;;2.63;;
64887;SDS011;51386;53.082;8.816;2023-12-20T01:54:18;11.17;;;3.30;;
64887;SDS011;51386;53.082;8.816;2023-12-20T01:56:48;11.97;;;2.50;;
64887;SDS011;51386;53.082;8.816;2023-12-20T01:59:18;10.30;;;1.93;;
64887;SDS011;51386;53.082;8.816;2023-12-20T02:01:48;9.90;;;2.70;;
64887;SDS011;51386;53.082;8.816;2023-12-20T02:04:17;7.30;;;2.30;;
64887;SDS011;51386;53.082;8.816;2023-12-20T02:06:46;8.73;;;2.20;;
64887;SDS011;51386;53.082;8.816;2023-12-20T02:09:16;5.40;;;2.33;;
64887;SDS011;51386;53.082;8.816;2023-12-20T02:11:44;14.40;;;2.90;;
64887;SDS011;51386;53.082;8.816;2023-12-20T02:14:12;13.97;;;2.23;;
64887;SDS011;51386;53.082;8.816;2023-12-20T02:16:41;14.33;;;2.13;;
64887;SDS011;51386;53.082;8.816;2023-12-20T02:19:12;9.87;;;2.00;;
64887;SDS011;51386;53.082;8.816;2023-12-20T02:21:42;11.03;;;2.33;;
64887;SDS011;51386;53.082;8.816;2023-12-20T02:24:11;11.13;;;2.40;;
64887;SDS011;51386;53.082;8.816;2023-12-20T02:26:40;10.03;;;2.27;;
64887;SDS011;51386;53.082;8.816;2023-12-20T02:29:12;11.33;;;2.00;;
64887;SDS011;51386;53.082;8.816;2023-12-20T02:31:40;10.83;;;2.40;;
64887;SDS011;51386;53.082;8.816;2023-12-20T02:34:09;8.37;;;2.10;;
64887;SDS011;51386;53.082;8.816;2023-12-20T02:36:38;7.30;;;2.30;;
64887;SDS011;51386;53.082;8.816;2023-12-20T02:39:06;10.13;;;2.40;;
64887;SDS011;51386;53.082;8.816;2023-12-20T02:41:34;8.60;;;2.20;;
64887;SDS011;51386;53.082;8.816;2023-12-20T02:44:03;8.80;;;2.07;;
64887;SDS011;51386;53.082;8.816;2023-12-20T02:46:32;5.77;;;2.10;;
64887;SDS011;51386;53.082;8.816;2023-12-20T02:49:00;13.10;;;2.73;;
64887;SDS011;51386;53.082;8.816;2023-12-20T02:51:29;11.53;;;2.80;;
64887;SDS011;51386;53.082;8.816;2023-12-20T02:53:57;14.47;;;2.53;;
64887;SDS011;51386;53.082;8.816;2023-12-20T02:56:25;7.90;;;2.43;;
64887;SDS011;51386;53.082;8.816;2023-12-20T02:58:54;11.20;;;3.23;;
64887;SDS011;51386;53.082;8.816;2023-12-20T03:01:22;13.33;;;2.83;;
64887;SDS011;51386;53.082;8.816;2023-12-20T03:03:50;5.87;;;2.03;;
64887;SDS011;51386;53.082;8.816;2023-12-20T03:06:19;8.97;;;2.37;;
64887;SDS011;51386;53.082;8.816;2023-12-20T03:08:48;9.70;;;2.53;;
64887;SDS011;51386;53.082;8.816;2023-12-20T03:11:16;7.47;;;2.30;;
64887;SDS011;51386;53.082;8.816;2023-12-20T03:13:45;12.73;;;2.30;;
64887;SDS011;51386;53.082;8.816;2023-12-20T03:16:13;11.50;;;2.30;;
64887;SDS011;51386;53.082;8.816;2023-12-20T03:18:43;11.90;;;2.70;;
64887;SDS011;51386;53.082;8.816;2023-12-20T03:21:12;15.37;;;2.50;;
64887;SDS011;51386;53.082;8.816;2023-12-20T03:23:40;8.60;;;2.43;;
64887;SDS011;51386;53.082;8.816;2023-12-20T03:26:09;12.07;;;2.07;;
64887;SDS011;51386;53.082;8.816;2023-12-20T03:28:38;9.80;;;2.53;;
64887;SDS011;51386;53.082;8.816;2023-12-20T03:31:06;8.77;;;2.30;;
64887;SDS011;51386;53.082;8.816;2023-12-20T03:33:35;12.53;;;2.83;;
64887;SDS011;51386;53.082;8.816;2023-12-20T03:36:03;7.67;;;2.33;;
64887;SDS011;51386;53.082;8.816;2023-12-20T03:38:32;12.53;;;2.93;;
64887;SDS011;51386;53.082;8.816;2023-12-20T03:41:01;10.70;;;2.50;;
64887;SDS011;51386;53.082;8.816;2023-12-20T03:43:29;11.03;;;2.50;;
64887;SDS011;51386;53.082;8.816;2023-12-20T03:45:57;7.83;;;2.63;;
64887;SDS011;51386;53.082;8.816;2023-12-20T03:48:27;15.10;;;3.23;;
64887;SDS011;51386;53.082;8.816;2023-12-20T03:50:56;7.83;;;2.43;;
64887;SDS011;51386;53.082;8.816;2023-12-20T03:53:25;13.80;;;2.80;;
64887;SDS011;51386;53.082;8.816;2023-12-20T03:55:53;11.93;;;2.83;;
64887;SDS011;51386;53.082;8.816;2023-12-20T03:58:21;12.47;;;3.13;;
64887;SDS011;51386;53.082;8.816;2023-12-20T04:00:50;8.83;;;2.93;;
64887;SDS011;51386;53.082;8.816;2023-12-20T04:03:18;11.43;;;2.83;;
64887;SDS011;51386;53.082;8.816;2023-12-20T04:05:47;10.63;;;2.70;;
64887;SDS011;51386;53.082;8.816;2023-12-20T04:08:15;13.60;;;3.40;;
64887;SDS011;51386;53.082;8.816;2023-12-20T04:10:43;14.77;;;3.57;;
64887;SDS011;51386;53.082;8.816;2023-12-20T04:13:12;8.53;;;2.77;;
64887;SDS011;51386;53.082;8.816;2023-12-20T04:15:40;11.60;;;4.00;;
64887;SDS011;51386;53.082;8.816;2023-12-20T04:18:09;10.67;;;3.13;;
64887;SDS011;51386;53.082;8.816;2023-12-20T04:20:37;9.63;;;2.80;;
64887;SDS011;51386;53.082;8.816;2023-12-20T04:23:06;12.43;;;3.60;;
64887;SDS011;51386;53.082;8.816;2023-12-20T04:25:35;15.73;;;3.73;;
64887;SDS011;51386;53.082;8.816;2023-12-20T04:28:03;11.77;;;3.13;;
64887;SDS011;51386;53.082;8.816;2023-12-20T04:30:31;8.93;;;2.80;;
64887;SDS011;51386;53.082;8.816;2023-12-20T04:33:01;14.30;;;3.40;;
64887;SDS011;51386;53.082;8.816;2023-12-20T04:35:30;12.93;;;3.23;;
64887;SDS011;51386;53.082;8.816;2023-12-20T04:37:58;7.50;;;3.13;;
64887;SDS011;51386;53.082;8.816;2023-12-20T04:40:26;7.63;;;3.27;;
64887;SDS011;51386;53.082;8.816;2023-12-20T04:42:55;10.40;;;4.37;;
64887;SDS011;51386;53.082;8.816;2023-12-20T04:45:23;10.53;;;4.03;;
64887;SDS011;51386;53.082;8.816;2023-12-20T04:47:52;9.93;;;4.33;;
64887;SDS011;51386;53.082;8.816;2023-12-20T04:50:21;13.03;;;4.13;;
64887;SDS011;51386;53.082;8.816;2023-12-20T04:52:49;10.40;;;4.20;;
64887;SDS011;51386;53.082;8.816;2023-12-20T04:55:18;13.70;;;4.57;;
64887;SDS011;51386;53.082;8.816;2023-12-20T04:57:47;15.70;;;4.10;;
64887;SDS011;51386;53.082;8.816;2023-12-20T05:00:16;8.77;;;3.77;;
64887;SDS011;51386;53.082;8.816;2023-12-20T05:02:44;7.00;;;3.80;;
64887;SDS011;51386;53.082;8.816;2023-12-20T05:05:13;12.43;;;4.40;;
64887;SDS011;51386;53.082;8.816;2023-12-20T05:07:42;12.07;;;4.07;;
64887;SDS011;51386;53.082;8.816;2023-12-20T05:10:12;11.57;;;3.57;;
64887;SDS011;51386;53.082;8.816;2023-12-20T05:12:40;10.50;;;3.83;;
64887;SDS011;51386;53.082;8.816;2023-12-20T05:15:08;15.90;;;4.47;;
64887;SDS011;51386;53.082;8.816;2023-12-20T05:17:37;14.67;;;4.57;;
64887;SDS011;51386;53.082;8.816;2023-12-20T05:20:06;15.50;;;3.43;;
64887;SDS011;51386;53.082;8.816;2023-12-20T05:22:35;7.63;;;3.40;;
64887;SDS011;51386;53.082;8.816;2023-12-20T05:25:04;12.73;;;3.43;;
64887;SDS011;51386;53.082;8.816;2023-12-20T05:27:35;10.63;;;3.60;;
64887;SDS011;51386;53.082;8.816;2023-12-20T05:30:04;8.03;;;3.03;;
64887;SDS011;51386;53.082;8.816;2023-12-20T05:32:33;15.87;;;3.90;;
64887;SDS011;51386;53.082;8.816;2023-12-20T05:35:02;10.23;;;3.67;;
64887;SDS011;51386;53.082;8.816;2023-12-20T05:37:31;12.90;;;3.97;;
64887;SDS011;51386;53.082;8.816;2023-12-20T05:39:59;9.00;;;3.60;;
64887;SDS011;51386;53.082;8.816;2023-12-20T05:42:27;20.70;;;3.67;;
64887;SDS011;51386;53.082;8.816;2023-12-20T05:44:56;10.13;;;3.20;;
64887;SDS011;51386;53.082;8.816;2023-12-20T05:47:24;16.73;;;4.87;;
64887;SDS011;51386;53.082;8.816;2023-12-20T05:49:53;14.27;;;3.83;;
64887;SDS011;51386;53.082;8.816;2023-12-20T05:52:21;11.47;;;4.10;;
64887;SDS011;51386;53.082;8.816;2023-12-20T05:54:50;17.20;;;3.40;;
64887;SDS011;51386;53.082;8.816;2023-12-20T05:57:18;14.30;;;3.37;;
64887;SDS011;51386;53.082;8.816;2023-12-20T05:59:46;11.10;;;3.60;;
64887;SDS011;51386;53.082;8.816;2023-12-20T06:02:15;9.97;;;3.27;;
64887;SDS011;51386;53.082;8.816;2023-12-20T06:04:43;15.87;;;3.50;;
64887;SDS011;51386;53.082;8.816;2023-12-20T06:07:12;13.33;;;3.63;;
64887;SDS011;51386;53.082;8.816;2023-12-20T06:09:42;13.13;;;3.90;;
64887;SDS011;51386;53.082;8.816;2023-12-20T06:12:11;17.00;;;3.60;;
64887;SDS011;51386;53.082;8.816;2023-12-20T06:14:39;18.60;;;4.50;;
64887;SDS011;51386;53.082;8.816;2023-12-20T06:17:08;11.57;;;3.40;;
64887;SDS011;51386;53.082;8.816;2023-12-20T06:19:36;14.33;;;3.27;;
64887;SDS011;51386;53.082;8.816;2023-12-20T06:22:04;20.83;;;4.80;;
64887;SDS011;51386;53.082;8.816;2023-12-20T06:24:33;17.67;;;4.77;;
64887;SDS011;51386;53.082;8.816;2023-12-20T06:27:01;14.73;;;3.87;;
64887;SDS011;51386;53.082;8.816;2023-12-20T06:29:30;16.07;;;4.73;;
64887;SDS011;51386;53.082;8.816;2023-12-20T06:31:59;24.67;;;4.20;;
64887;SDS011;51386;53.082;8.816;2023-12-20T06:34:27;20.10;;;3.47;;
64887;SDS011;51386;53.082;8.816;2023-12-20T06:36:56;16.97;;;3.63;;
64887;SDS011;51386;53.082;8.816;2023-12-20T06:39:24;14.03;;;3.80;;
64887;SDS011;51386;53.082;8.816;2023-12-20T06:41:53;13.87;;;4.13;;
64887;SDS011;51386;53.082;8.816;2023-12-20T06:44:21;20.10;;;4.50;;
64887;SDS011;51386;53.082;8.816;2023-12-20T06:46:50;18.47;;;4.40;;
64887;SDS011;51386;53.082;8.816;2023-12-20T06:49:18;12.53;;;3.80;;
64887;SDS011;51386;53.082;8.816;2023-12-20T06:51:46;16.80;;;3.90;;
64887;SDS011;51386;53.082;8.816;2023-12-20T06:54:15;12.80;;;3.37;;
64887;SDS011;51386;53.082;8.816;2023-12-20T06:56:43;12.67;;;3.30;;
64887;SDS011;51386;53.082;8.816;2023-12-20T06:59:12;18.33;;;4.37;;
64887;SDS011;51386;53.082;8.816;2023-12-20T07:01:40;16.30;;;4.50;;
64887;SDS011;51386;53.082;8.816;2023-12-20T07:04:09;16.17;;;4.03;;
64887;SDS011;51386;53.082;8.816;2023-12-20T07:06:58;20.47;;;4.53;;
64887;SDS011;51386;53.082;8.816;2023-12-20T07:09:27;14.80;;;3.97;;
64887;SDS011;51386;53.082;8.816;2023-12-20T07:11:56;18.70;;;4.97;;
64887;SDS011;51386;53.082;8.816;2023-12-20T07:14:24;12.57;;;4.07;;
64887;SDS011;51386;53.082;8.816;2023-12-20T07:16:53;17.80;;;5.00;;
64887;SDS011;51386;53.082;8.816;2023-12-20T07:19:21;13.50;;;4.13;;
64887;SDS011;51386;53.082;8.816;2023-12-20T07:21:50;19.40;;;4.90;;
64887;SDS011;51386;53.082;8.816;2023-12-20T07:24:24;13.47;;;4.10;;
64887;SDS011;51386;53.082;8.816;2023-12-20T07:26:52;15.97;;;4.00;;
64887;SDS011;51386;53.082;8.816;2023-12-20T07:29:21;12.50;;;4.17;;
64887;SDS011;51386;53.082;8.816;2023-12-20T07:31:49;17.13;;;4.27;;
64887;SDS011;51386;53.082;8.816;2023-12-20T07:34:20;14.77;;;4.33;;
64887;SDS011;51386;53.082;8.816;2023-12-20T07:36:53;14.83;;;3.67;;
64887;SDS011;51386;53.082;8.816;2023-12-20T07:39:37;19.47;;;5.00;;
64887;SDS011;51386;53.082;8.816;2023-12-20T07:42:13;11.60;;;3.80;;
64887;SDS011;51386;53.082;8.816;2023-12-20T07:44:47;20.93;;;4.33;;
64887;SDS011;51386;53.082;8.816;2023-12-20T07:47:22;17.33;;;4.07;;
64887;SDS011;51386;53.082;8.816;2023-12-20T07:49:55;11.83;;;4.37;;
64887;SDS011;51386;53.082;8.816;2023-12-20T07:52:25;15.60;;;3.87;;
64887;SDS011;51386;53.082;8.816;2023-12-20T07:54:54;13.17;;;4.20;;
64887;SDS011;51386;53.082;8.816;2023-12-20T07:57:24;13.13;;;3.40;;
64887;SDS011;51386;53.082;8.816;2023-12-20T08:00:13;11.67;;;4.07;;
64887;SDS011;51386;53.082;8.816;2023-12-20T08:03:03;15.87;;;4.50;;
64887;SDS011;51386;53.082;8.816;2023-12-20T08:05:31;15.33;;;4.90;;
64887;SDS011;51386;53.082;8.816;2023-12-20T08:08:00;16.17;;;4.70;;
64887;SDS011;51386;53.082;8.816;2023-12-20T08:10:29;17.87;;;4.93;;
64887;SDS011;51386;53.082;8.816;2023-12-20T08:12:57;14.57;;;4.60;;
64887;SDS011;51386;53.082;8.816;2023-12-20T08:15:28;16.87;;;5.20;;
64887;SDS011;51386;53.082;8.816;2023-12-20T08:17:57;19.77;;;4.63;;
64887;SDS011;51386;53.082;8.816;2023-12-20T08:20:27;13.63;;;4.30;;
64887;SDS011;51386;53.082;8.816;2023-12-20T08:23:06;18.23;;;4.20;;
64887;SDS011;51386;53.082;8.816;2023-12-20T08:25:34;20.37;;;5.00;;
64887;SDS011;51386;53.082;8.816;2023-12-20T08:28:05;15.73;;;5.13;;
64887;SDS011;51386;53.082;8.816;2023-12-20T08:30:35;14.23;;;4.07;;
64887;SDS011;51386;53.082;8.816;2023-12-20T08:33:12;16.07;;;3.97;;
64887;SDS011;51386;53.082;8.816;2023-12-20T08:35:46;11.47;;;4.30;;
64887;SDS011;51386;53.082;8.816;2023-12-20T08:38:14;22.23;;;3.97;;
64887;SDS011;51386;53.082;8.816;2023-12-20T08:40:44;12.67;;;3.60;;
64887;SDS011;51386;53.082;8.816;2023-12-20T08:43:12;18.27;;;4.20;;
64887;SDS011;51386;53.082;8.816;2023-12-20T08:45:52;12.47;;;4.23;;
64887;SDS011;51386;53.082;8.816;2023-12-20T08:48:20;15.97;;;4.23;;
64887;SDS011;51386;53.082;8.816;2023-12-20T08:50:48;17.87;;;4.53;;
64887;SDS011;51386;53.082;8.816;2023-12-20T08:53:19;14.67;;;4.73;;
64887;SDS011;51386;53.082;8.816;2023-12-20T08:55:47;11.47;;;3.50;;
64887;SDS011;51386;53.082;8.816;2023-12-20T08:58:16;11.33;;;4.27;;
64887;SDS011;51386;53.082;8.816;2023-12-20T09:00:44;17.40;;;4.63;;
64887;SDS011;51386;53.082;8.816;2023-12-20T09:03:13;17.57;;;4.23;;
64887;SDS011;51386;53.082;8.816;2023-12-20T09:05:42;15.33;;;4.50;;
64887;SDS011;51386;53.082;8.816;2023-12-20T09:08:21;10.77;;;3.83;;
64887;SDS011;51386;53.082;8.816;2023-12-20T09:10:49;14.63;;;4.10;;
64887;SDS011;51386;53.082;8.816;2023-12-20T09:13:18;12.10;;;3.60;;
64887;SDS011;51386;53.082;8.816;2023-12-20T09:15:50;10.20;;;4.20;;
64887;SDS011;51386;53.082;8.816;2023-12-20T09:18:18;12.50;;;3.73;;
64887;SDS011;51386;53.082;8.816;2023-12-20T09:20:47;8.27;;;3.77;;
64887;SDS011;51386;53.082;8.816;2023-12-20T09:23:22;8.97;;;3.73;;
64887;SDS011;51386;53.082;8.816;2023-12-20T09:27:17;9.00;;;3.77;;
64887;SDS011;51386;53.082;8.816;2023-12-20T09:29:46;12.43;;;3.93;;
64887;SDS011;51386;53.082;8.816;2023-12-20T09:32:35;12.67;;;3.77;;
64887;SDS011;51386;53.082;8.816;2023-12-20T09:35:17;13.23;;;3.67;;
64887;SDS011;51386;53.082;8.816;2023-12-20T09:37:51;17.73;;;4.10;;
64887;SDS011;51386;53.082;8.816;2023-12-20T09:40:23;16.63;;;4.43;;
64887;SDS011;51386;53.082;8.816;2023-12-20T09:45:45;14.20;;;4.40;;
64887;SDS011;51386;53.082;8.816;2023-12-20T09:48:21;10.87;;;4.27;;
64887;SDS011;51386;53.082;8.816;2023-12-20T09:50:57;16.10;;;4.77;;
64887;SDS011;51386;53.082;8.816;2023-12-20T09:53:26;12.63;;;4.23;;
64887;SDS011;51386;53.082;8.816;2023-12-20T09:55:58;12.37;;;4.03;;
64887;SDS011;51386;53.082;8.816;2023-12-20T09:58:28;8.30;;;3.07;;
64887;SDS011;51386;53.082;8.816;2023-12-20T10:00:56;9.00;;;3.07;;
64887;SDS011;51386;53.082;8.816;2023-12-20T10:03:25;9.23;;;2.73;;
64887;SDS011;51386;53.082;8.816;2023-12-20T10:05:54;4.07;;;1.83;;
64887;SDS011;51386;53.082;8.816;2023-12-20T10:08:25;2.73;;;1.50;;
64887;SDS011;51386;53.082;8.816;2023-12-20T10:10:54;3.17;;;1.27;;
64887;SDS011;51386;53.082;8.816;2023-12-20T10:13:25;2.97;;;1.23;;
64887;SDS011;51386;53.082;8.816;2023-12-20T10:15:54;5.43;;;1.20;;
64887;SDS011;51386;53.082;8.816;2023-12-20T10:18:24;3.97;;;1.07;;
64887;SDS011;51386;53.082;8.816;2023-12-20T10:21:05;1.50;;;0.90;;
64887;SDS011;51386;53.082;8.816;2023-12-20T10:23:37;5.20;;;1.50;;
64887;SDS011;51386;53.082;8.816;2023-12-20T10:26:07;2.87;;;1.63;;
64887;SDS011;51386;53.082;8.816;2023-12-20T10:28:35;1.23;;;0.93;;
64887;SDS011;51386;53.082;8.816;2023-12-20T10:31:08;3.83;;;1.40;;
64887;SDS011;51386;53.082;8.816;2023-12-20T10:33:36;4.80;;;1.60;;
64887;SDS011;51386;53.082;8.816;2023-12-20T10:36:08;2.60;;;1.30;;
64887;SDS011;51386;53.082;8.816;2023-12-20T10:38:37;2.87;;;1.37;;
64887;SDS011;51386;53.082;8.816;2023-12-20T10:41:10;2.90;;;1.03;;
64887;SDS011;51386;53.082;8.816;2023-12-20T10:43:41;5.70;;;1.30;;
64887;SDS011;51386;53.082;8.816;2023-12-20T10:46:10;3.00;;;1.23;;
64887;SDS011;51386;53.082;8.816;2023-12-20T10:48:40;5.13;;;1.60;;
64887;SDS011;51386;53.082;8.816;2023-12-20T10:51:12;5.33;;;1.13;;
64887;SDS011;51386;53.082;8.816;2023-12-20T10:53:47;4.47;;;1.10;;
64887;SDS011;51386;53.082;8.816;2023-12-20T10:56:17;2.67;;;1.00;;
64887;SDS011;51386;53.082;8.816;2023-12-20T10:58:49;6.30;;;1.67;;
64887;SDS011;51386;53.082;8.816;2023-12-20T11:01:19;6.87;;;1.63;;
64887;SDS011;51386;53.082;8.816;2023-12-20T11:03:49;5.93;;;1.60;;
64887;SDS011;51386;53.082;8.816;2023-12-20T11:06:26;4.97;;;1.90;;
64887;SDS011;51386;53.082;8.816;2023-12-20T11:09:06;4.27;;;1.23;;
64887;SDS011;51386;53.082;8.816;2023-12-20T11:12:10;3.20;;;1.53;;
64887;SDS011;51386;53.082;8.816;2023-12-20T11:14:51;5.20;;;1.97;;
64887;SDS011;51386;53.082;8.816;2023-12-20T11:17:25;4.47;;;1.50;;
64887;SDS011;51386;53.082;8.816;2023-12-20T11:22:24;4.07;;;1.70;;
64887;SDS011;51386;53.082;8.816;2023-12-20T11:24:54;3.93;;;1.27;;
64887;SDS011;51386;53.082;8.816;2023-12-20T11:27:34;5.17;;;1.80;;
64887;SDS011;51386;53.082;8.816;2023-12-20T11:30:53;6.97;;;2.20;;
64887;SDS011;51386;53.082;8.816;2023-12-20T11:33:36;5.60;;;1.20;;
64887;SDS011;51386;53.082;8.816;2023-12-20T11:36:13;5.20;;;1.90;;
64887;SDS011;51386;53.082;8.816;2023-12-20T11:38:55;5.33;;;2.80;;
64887;SDS011;51386;53.082;8.816;2023-12-20T11:41:25;8.07;;;2.30;;
64887;SDS011;51386;53.082;8.816;2023-12-20T11:43:55;9.50;;;2.33;;
64887;SDS011;51386;53.082;8.816;2023-12-20T11:46:24;10.30;;;1.90;;
64887;SDS011;51386;53.082;8.816;2023-12-20T11:48:54;4.77;;;2.17;;
64887;SDS011;51386;53.082;8.816;2023-12-20T11:51:22;6.97;;;1.93;;
64887;SDS011;51386;53.082;8.816;2023-12-20T11:53:54;3.97;;;1.73;;
64887;SDS011;51386;53.082;8.816;2023-12-20T11:56:22;10.60;;;3.70;;
64887;SDS011;51386;53.082;8.816;2023-12-20T11:58:51;6.53;;;2.37;;
64887;SDS011;51386;53.082;8.816;2023-12-20T12:01:22;8.73;;;2.67;;
64887;SDS011;51386;53.082;8.816;2023-12-20T12:04:01;6.53;;;2.30;;
64887;SDS011;51386;53.082;8.816;2023-12-20T12:06:34;12.57;;;2.90;;
64887;SDS011;51386;53.082;8.816;2023-12-20T12:09:03;10.37;;;2.97;;
64887;SDS011;51386;53.082;8.816;2023-12-20T12:11:32;5.00;;;1.97;;
64887;SDS011;51386;53.082;8.816;2023-12-20T12:14:00;8.77;;;2.50;;
64887;SDS011;51386;53.082;8.816;2023-12-20T12:16:29;8.60;;;2.37;;
64887;SDS011;51386;53.082;8.816;2023-12-20T12:18:58;9.93;;;2.23;;
64887;SDS011;51386;53.082;8.816;2023-12-20T12:21:27;6.47;;;2.00;;
64887;SDS011;51386;53.082;8.816;2023-12-20T12:24:06;11.50;;;2.67;;
64887;SDS011;51386;53.082;8.816;2023-12-20T12:26:38;17.27;;;3.00;;
64887;SDS011;51386;53.082;8.816;2023-12-20T12:29:09;7.43;;;2.03;;
64887;SDS011;51386;53.082;8.816;2023-12-20T12:31:37;9.50;;;2.60;;
64887;SDS011;51386;53.082;8.816;2023-12-20T12:34:06;9.97;;;2.90;;
64887;SDS011;51386;53.082;8.816;2023-12-20T12:36:36;13.20;;;3.30;;
64887;SDS011;51386;53.082;8.816;2023-12-20T12:39:05;11.80;;;2.97;;
64887;SDS011;51386;53.082;8.816;2023-12-20T12:41:33;7.30;;;2.40;;
64887;SDS011;51386;53.082;8.816;2023-12-20T12:44:02;14.57;;;2.87;;
64887;SDS011;51386;53.082;8.816;2023-12-20T12:46:42;6.43;;;2.50;;
64887;SDS011;51386;53.082;8.816;2023-12-20T12:49:14;10.43;;;2.80;;
64887;SDS011;51386;53.082;8.816;2023-12-20T12:51:43;9.00;;;2.13;;
64887;SDS011;51386;53.082;8.816;2023-12-20T12:54:12;13.10;;;2.50;;
64887;SDS011;51386;53.082;8.816;2023-12-20T12:56:43;13.77;;;2.47;;
64887;SDS011;51386;53.082;8.816;2023-12-20T12:59:12;11.43;;;2.70;;
64887;SDS011;51386;53.082;8.816;2023-12-20T13:01:40;9.33;;;3.00;;
64887;SDS011;51386;53.082;8.816;2023-12-20T13:04:09;7.20;;;2.30;;
64887;SDS011;51386;53.082;8.816;2023-12-20T13:06:38;11.20;;;2.77;;
64887;SDS011;51386;53.082;8.816;2023-12-20T13:09:11;12.77;;;5.83;;
64887;SDS011;51386;53.082;8.816;2023-12-20T13:12:13;7.73;;;2.80;;
64887;SDS011;51386;53.082;8.816;2023-12-20T13:14:41;14.17;;;2.80;;
64887;SDS011;51386;53.082;8.816;2023-12-20T13:17:10;7.17;;;2.87;;
64887;SDS011;51386;53.082;8.816;2023-12-20T13:19:38;7.90;;;3.10;;
64887;SDS011;51386;53.082;8.816;2023-12-20T13:22:07;8.67;;;3.13;;
64887;SDS011;51386;53.082;8.816;2023-12-20T13:24:35;9.13;;;2.40;;
64887;SDS011;51386;53.082;8.816;2023-12-20T13:27:10;7.77;;;3.03;;
64887;SDS011;51386;53.082;8.816;2023-12-20T13:29:46;5.87;;;2.70;;
64887;SDS011;51386;53.082;8.816;2023-12-20T13:32:25;9.00;;;2.53;;
64887;SDS011;51386;53.082;8.816;2023-12-20T13:34:54;10.83;;;2.70;;
64887;SDS011;51386;53.082;8.816;2023-12-20T13:37:23;9.67;;;3.13;;
64887;SDS011;51386;53.082;8.816;2023-12-20T13:39:51;10.87;;;2.73;;
64887;SDS011;51386;53.082;8.816;2023-12-20T13:42:20;8.10;;;2.63;;
64887;SDS011;51386;53.082;8.816;2023-12-20T13:44:48;9.73;;;2.70;;
64887;SDS011;51386;53.082;8.816;2023-12-20T13:47:16;8.93;;;3.10;;
64887;SDS011;51386;53.082;8.816;2023-12-20T13:49:48;11.93;;;2.90;;
64887;SDS011;51386;53.082;8.816;2023-12-20T13:52:17;10.90;;;3.17;;
64887;SDS011;51386;53.082;8.816;2023-12-20T13:54:46;11.00;;;3.60;;
64887;SDS011;51386;53.082;8.816;2023-12-20T13:57:15;11.03;;;3.10;;
64887;SDS011;51386;53.082;8.816;2023-12-20T13:59:46;13.50;;;3.20;;
64887;SDS011;51386;53.082;8.816;2023-12-20T14:02:15;7.60;;;3.00;;
64887;SDS011;51386;53.082;8.816;2023-12-20T14:04:44;10.90;;;2.80;;
64887;SDS011;51386;53.082;8.816;2023-12-20T14:07:12;12.03;;;3.30;;
64887;SDS011;51386;53.082;8.816;2023-12-20T14:09:41;7.50;;;2.80;;
64887;SDS011;51386;53.082;8.816;2023-12-20T14:12:13;15.03;;;3.23;;
64887;SDS011;51386;53.082;8.816;2023-12-20T14:14:41;7.87;;;2.80;;
64887;SDS011;51386;53.082;8.816;2023-12-20T14:17:11;8.00;;;2.77;;
64887;SDS011;51386;53.082;8.816;2023-12-20T14:19:40;13.17;;;3.40;;
64887;SDS011;51386;53.082;8.816;2023-12-20T14:22:08;14.00;;;3.17;;
64887;SDS011;51386;53.082;8.816;2023-12-20T14:24:36;12.33;;;2.97;;
64887;SDS011;51386;53.082;8.816;2023-12-20T14:27:05;12.23;;;3.27;;
64887;SDS011;51386;53.082;8.816;2023-12-20T14:29:33;7.47;;;2.67;;
64887;SDS011;51386;53.082;8.816;2023-12-20T14:32:02;10.90;;;2.50;;
64887;SDS011;51386;53.082;8.816;2023-12-20T14:34:31;10.30;;;2.83;;
64887;SDS011;51386;53.082;8.816;2023-12-20T14:36:59;10.40;;;2.70;;
64887;SDS011;51386;53.082;8.816;2023-12-20T14:39:28;14.80;;;3.33;;
64887;SDS011;51386;53.082;8.816;2023-12-20T14:41:56;13.10;;;3.73;;
64887;SDS011;51386;53.082;8.816;2023-12-20T14:44:25;10.83;;;3.10;;
64887;SDS011;51386;53.082;8.816;2023-12-20T14:46:53;14.07;;;3.87;;
64887;SDS011;51386;53.082;8.816;2023-12-20T14:49:21;9.67;;;2.37;;
64887;SDS011;51386;53.082;8.816;2023-12-20T14:51:50;4.50;;;2.47;;
64887;SDS011;51386;53.082;8.816;2023-12-20T14:54:18;10.50;;;2.57;;
64887;SDS011;51386;53.082;8.816;2023-12-20T14:56:48;8.73;;;2.53;;
64887;SDS011;51386;53.082;8.816;2023-12-20T14:59:16;12.97;;;3.10;;
64887;SDS011;51386;53.082;8.816;2023-12-20T15:01:45;16.47;;;3.03;;
64887;SDS011;51386;53.082;8.816;2023-12-20T15:04:13;14.90;;;2.90;;